sensor_id;sensor_type;location;lat;lon;timestamp;P1;durP1;ratioP1;P2;durP2;ratioP2
62633;SDS011;48704;50.534;6.442;2023-03-08T00:00:16;3.67;;;1.42;;
62633;SDS011;48704;50.534;6.442;2023-03-08T00:02:43;3.55;;;1.40;;
62633;SDS011;48704;50.534;6.442;2023-03-08T00:05:10;3.28;;;1.50;;
62633;SDS011;48704;50.534;6.442;2023-03-08T00:07:37;4.75;;;1.80;;
62633;SDS011;48704;50.534;6.442;2023-03-08T00:10:03;2.67;;;1.40;;
62633;SDS011;48704;50.534;6.442;2023-03-08T00:12:29;3.10;;;1.48;;
62633;SDS011;48704;50.534;6.442;2023-03-08T00:14:56;4.10;;;1.83;;
62633;SDS011;48704;50.534;6.442;2023-03-08T00:17:23;3.30;;;1.50;;
62633;SDS011;48704;50.534;6.442;2023-03-08T00:19:50;2.72;;;1.50;;
62633;SDS011;48704;50.534;6.442;2023-03-08T00:22:22;3.10;;;1.60;;
62633;SDS011;48704;50.534;6.442;2023-03-08T00:24:49;3.22;;;1.65;;
62633;SDS011;48704;50.534;6.442;2023-03-08T00:27:18;2.97;;;1.30;;
62633;SDS011;48704;50.534;6.442;2023-03-08T00:29:48;3.22;;;1.55;;
62633;SDS011;48704;50.534;6.442;2023-03-08T00:32:17;3.85;;;1.95;;
62633;SDS011;48704;50.534;6.442;2023-03-08T00:34:49;4.80;;;1.98;;
62633;SDS011;48704;50.534;6.442;2023-03-08T00:37:21;3.58;;;2.05;;
62633;SDS011;48704;50.534;6.442;2023-03-08T00:39:51;3.22;;;2.05;;
62633;SDS011;48704;50.534;6.442;2023-03-08T00:42:18;2.75;;;1.40;;
62633;SDS011;48704;50.534;6.442;2023-03-08T00:44:46;3.45;;;1.80;;
62633;SDS011;48704;50.534;6.442;2023-03-08T00:47:12;3.22;;;1.65;;
62633;SDS011;48704;50.534;6.442;2023-03-08T00:49:42;4.00;;;1.80;;
62633;SDS011;48704;50.534;6.442;2023-03-08T00:52:08;3.92;;;2.28;;
62633;SDS011;48704;50.534;6.442;2023-03-08T00:54:36;3.42;;;1.88;;
62633;SDS011;48704;50.534;6.442;2023-03-08T00:57:01;4.25;;;2.42;;
62633;SDS011;48704;50.534;6.442;2023-03-08T00:59:27;5.35;;;2.65;;
62633;SDS011;48704;50.534;6.442;2023-03-08T01:01:52;4.03;;;2.15;;
62633;SDS011;48704;50.534;6.442;2023-03-08T01:04:19;5.07;;;2.25;;
62633;SDS011;48704;50.534;6.442;2023-03-08T01:06:45;4.68;;;2.30;;
62633;SDS011;48704;50.534;6.442;2023-03-08T01:09:10;4.53;;;2.13;;
62633;SDS011;48704;50.534;6.442;2023-03-08T01:11:36;4.13;;;2.30;;
62633;SDS011;48704;50.534;6.442;2023-03-08T01:14:03;4.03;;;2.17;;
62633;SDS011;48704;50.534;6.442;2023-03-08T01:16:31;3.72;;;1.73;;
62633;SDS011;48704;50.534;6.442;2023-03-08T01:18:58;5.35;;;2.30;;
62633;SDS011;48704;50.534;6.442;2023-03-08T01:21:25;5.60;;;2.60;;
62633;SDS011;48704;50.534;6.442;2023-03-08T01:23:51;4.32;;;2.47;;
62633;SDS011;48704;50.534;6.442;2023-03-08T01:26:18;4.65;;;2.50;;
62633;SDS011;48704;50.534;6.442;2023-03-08T01:28:46;5.60;;;2.55;;
62633;SDS011;48704;50.534;6.442;2023-03-08T01:31:13;5.45;;;2.92;;
62633;SDS011;48704;50.534;6.442;2023-03-08T01:33:43;4.90;;;2.28;;
62633;SDS011;48704;50.534;6.442;2023-03-08T01:36:11;4.38;;;2.67;;
62633;SDS011;48704;50.534;6.442;2023-03-08T01:38:39;5.88;;;2.85;;
62633;SDS011;48704;50.534;6.442;2023-03-08T01:41:05;6.25;;;2.70;;
62633;SDS011;48704;50.534;6.442;2023-03-08T01:43:33;6.43;;;3.08;;
62633;SDS011;48704;50.534;6.442;2023-03-08T01:51:28;6.68;;;3.40;;
62633;SDS011;48704;50.534;6.442;2023-03-08T01:56:26;4.75;;;2.42;;
62633;SDS011;48704;50.534;6.442;2023-03-08T01:58:52;5.65;;;2.83;;
62633;SDS011;48704;50.534;6.442;2023-03-08T02:01:19;6.13;;;3.05;;
62633;SDS011;48704;50.534;6.442;2023-03-08T02:03:45;6.05;;;2.85;;
62633;SDS011;48704;50.534;6.442;2023-03-08T02:06:13;6.40;;;3.08;;
62633;SDS011;48704;50.534;6.442;2023-03-08T02:08:42;6.93;;;3.33;;
62633;SDS011;48704;50.534;6.442;2023-03-08T02:11:08;6.70;;;3.03;;
62633;SDS011;48704;50.534;6.442;2023-03-08T02:13:36;5.68;;;3.10;;
62633;SDS011;48704;50.534;6.442;2023-03-08T02:16:05;5.75;;;2.97;;
62633;SDS011;48704;50.534;6.442;2023-03-08T02:18:33;7.63;;;2.80;;
62633;SDS011;48704;50.534;6.442;2023-03-08T02:20:59;8.00;;;3.47;;
62633;SDS011;48704;50.534;6.442;2023-03-08T02:23:25;5.97;;;2.80;;
62633;SDS011;48704;50.534;6.442;2023-03-08T02:25:52;7.65;;;3.25;;
62633;SDS011;48704;50.534;6.442;2023-03-08T02:28:23;9.10;;;4.07;;
62633;SDS011;48704;50.534;6.442;2023-03-08T02:30:53;9.07;;;3.70;;
62633;SDS011;48704;50.534;6.442;2023-03-08T02:33:20;8.02;;;3.33;;
62633;SDS011;48704;50.534;6.442;2023-03-08T02:35:46;6.60;;;3.78;;
62633;SDS011;48704;50.534;6.442;2023-03-08T02:38:13;7.38;;;4.00;;
62633;SDS011;48704;50.534;6.442;2023-03-08T02:40:39;7.15;;;3.63;;
62633;SDS011;48704;50.534;6.442;2023-03-08T02:43:05;10.68;;;4.43;;
62633;SDS011;48704;50.534;6.442;2023-03-08T02:45:31;8.85;;;4.03;;
62633;SDS011;48704;50.534;6.442;2023-03-08T02:47:58;9.40;;;4.28;;
62633;SDS011;48704;50.534;6.442;2023-03-08T02:50:24;8.40;;;3.75;;
62633;SDS011;48704;50.534;6.442;2023-03-08T02:52:50;8.60;;;4.07;;
62633;SDS011;48704;50.534;6.442;2023-03-08T02:55:16;9.38;;;4.10;;
62633;SDS011;48704;50.534;6.442;2023-03-08T02:57:41;9.95;;;4.80;;
62633;SDS011;48704;50.534;6.442;2023-03-08T03:00:08;8.95;;;4.75;;
62633;SDS011;48704;50.534;6.442;2023-03-08T03:02:35;9.52;;;4.53;;
62633;SDS011;48704;50.534;6.442;2023-03-08T03:05:02;9.30;;;4.40;;
62633;SDS011;48704;50.534;6.442;2023-03-08T03:07:29;9.15;;;4.22;;
62633;SDS011;48704;50.534;6.442;2023-03-08T03:09:55;9.85;;;5.03;;
62633;SDS011;48704;50.534;6.442;2023-03-08T03:12:21;11.45;;;5.22;;
62633;SDS011;48704;50.534;6.442;2023-03-08T03:14:46;8.93;;;4.55;;
62633;SDS011;48704;50.534;6.442;2023-03-08T03:17:12;8.77;;;4.47;;
62633;SDS011;48704;50.534;6.442;2023-03-08T03:19:37;10.48;;;4.47;;
62633;SDS011;48704;50.534;6.442;2023-03-08T03:22:03;13.60;;;5.32;;
62633;SDS011;48704;50.534;6.442;2023-03-08T03:24:29;11.23;;;4.60;;
62633;SDS011;48704;50.534;6.442;2023-03-08T03:26:55;8.50;;;4.20;;
62633;SDS011;48704;50.534;6.442;2023-03-08T03:29:20;12.80;;;5.28;;
62633;SDS011;48704;50.534;6.442;2023-03-08T03:31:45;10.45;;;4.40;;
62633;SDS011;48704;50.534;6.442;2023-03-08T03:34:12;11.85;;;5.32;;
62633;SDS011;48704;50.534;6.442;2023-03-08T03:36:38;10.30;;;4.95;;
62633;SDS011;48704;50.534;6.442;2023-03-08T03:39:04;9.10;;;4.97;;
62633;SDS011;48704;50.534;6.442;2023-03-08T03:41:30;11.45;;;4.72;;
62633;SDS011;48704;50.534;6.442;2023-03-08T03:43:56;8.20;;;4.35;;
62633;SDS011;48704;50.534;6.442;2023-03-08T03:46:22;12.25;;;5.47;;
62633;SDS011;48704;50.534;6.442;2023-03-08T03:48:48;11.55;;;5.30;;
62633;SDS011;48704;50.534;6.442;2023-03-08T03:51:15;9.43;;;4.15;;
62633;SDS011;48704;50.534;6.442;2023-03-08T03:53:43;11.60;;;5.35;;
62633;SDS011;48704;50.534;6.442;2023-03-08T03:56:13;12.00;;;5.22;;
62633;SDS011;48704;50.534;6.442;2023-03-08T03:58:40;11.68;;;5.25;;
62633;SDS011;48704;50.534;6.442;2023-03-08T04:01:13;10.45;;;4.50;;
62633;SDS011;48704;50.534;6.442;2023-03-08T04:03:40;15.27;;;6.00;;
62633;SDS011;48704;50.534;6.442;2023-03-08T04:06:08;12.50;;;5.30;;
62633;SDS011;48704;50.534;6.442;2023-03-08T04:08:36;13.30;;;5.22;;
62633;SDS011;48704;50.534;6.442;2023-03-08T04:11:08;11.98;;;5.75;;
62633;SDS011;48704;50.534;6.442;2023-03-08T04:13:33;14.05;;;6.28;;
62633;SDS011;48704;50.534;6.442;2023-03-08T04:15:59;12.00;;;4.95;;
62633;SDS011;48704;50.534;6.442;2023-03-08T04:18:25;13.98;;;5.82;;
62633;SDS011;48704;50.534;6.442;2023-03-08T04:20:50;10.50;;;5.00;;
62633;SDS011;48704;50.534;6.442;2023-03-08T04:23:16;12.82;;;6.28;;
62633;SDS011;48704;50.534;6.442;2023-03-08T04:25:41;11.15;;;5.38;;
62633;SDS011;48704;50.534;6.442;2023-03-08T04:28:07;11.20;;;5.47;;
62633;SDS011;48704;50.534;6.442;2023-03-08T04:30:32;12.98;;;6.00;;
62633;SDS011;48704;50.534;6.442;2023-03-08T04:32:57;12.23;;;5.32;;
62633;SDS011;48704;50.534;6.442;2023-03-08T04:35:23;12.93;;;6.00;;
62633;SDS011;48704;50.534;6.442;2023-03-08T04:37:48;10.80;;;5.32;;
62633;SDS011;48704;50.534;6.442;2023-03-08T04:40:13;13.57;;;6.28;;
62633;SDS011;48704;50.534;6.442;2023-03-08T04:42:39;10.52;;;5.22;;
62633;SDS011;48704;50.534;6.442;2023-03-08T04:45:07;14.27;;;6.32;;
62633;SDS011;48704;50.534;6.442;2023-03-08T04:47:33;12.05;;;5.53;;
62633;SDS011;48704;50.534;6.442;2023-03-08T04:49:59;13.85;;;5.60;;
62633;SDS011;48704;50.534;6.442;2023-03-08T04:52:24;12.65;;;5.47;;
62633;SDS011;48704;50.534;6.442;2023-03-08T04:54:49;12.50;;;4.65;;
62633;SDS011;48704;50.534;6.442;2023-03-08T04:57:15;12.55;;;5.47;;
62633;SDS011;48704;50.534;6.442;2023-03-08T04:59:42;13.10;;;5.43;;
62633;SDS011;48704;50.534;6.442;2023-03-08T05:02:07;10.10;;;4.40;;
62633;SDS011;48704;50.534;6.442;2023-03-08T05:04:33;10.02;;;4.43;;
62633;SDS011;48704;50.534;6.442;2023-03-08T05:06:58;8.95;;;4.43;;
62633;SDS011;48704;50.534;6.442;2023-03-08T05:09:23;11.80;;;4.80;;
62633;SDS011;48704;50.534;6.442;2023-03-08T05:11:49;8.38;;;3.90;;
62633;SDS011;48704;50.534;6.442;2023-03-08T05:14:14;9.63;;;5.10;;
62633;SDS011;48704;50.534;6.442;2023-03-08T05:16:40;8.48;;;4.38;;
62633;SDS011;48704;50.534;6.442;2023-03-08T05:19:05;12.25;;;5.05;;
62633;SDS011;48704;50.534;6.442;2023-03-08T05:21:31;11.18;;;4.50;;
62633;SDS011;48704;50.534;6.442;2023-03-08T05:23:57;10.35;;;5.13;;
62633;SDS011;48704;50.534;6.442;2023-03-08T05:26:24;11.35;;;5.28;;
62633;SDS011;48704;50.534;6.442;2023-03-08T05:28:49;10.70;;;4.80;;
62633;SDS011;48704;50.534;6.442;2023-03-08T05:31:16;8.10;;;3.65;;
62633;SDS011;48704;50.534;6.442;2023-03-08T05:33:44;7.57;;;3.75;;
62633;SDS011;48704;50.534;6.442;2023-03-08T05:36:12;8.40;;;3.88;;
62633;SDS011;48704;50.534;6.442;2023-03-08T05:38:38;8.23;;;3.75;;
62633;SDS011;48704;50.534;6.442;2023-03-08T05:41:05;7.55;;;3.78;;
62633;SDS011;48704;50.534;6.442;2023-03-08T05:43:33;7.85;;;3.67;;
62633;SDS011;48704;50.534;6.442;2023-03-08T05:46:00;5.32;;;2.83;;
62633;SDS011;48704;50.534;6.442;2023-03-08T05:48:28;6.32;;;3.17;;
62633;SDS011;48704;50.534;6.442;2023-03-08T05:50:54;7.82;;;3.72;;
62633;SDS011;48704;50.534;6.442;2023-03-08T05:53:20;7.70;;;3.83;;
62633;SDS011;48704;50.534;6.442;2023-03-08T05:55:46;6.75;;;3.15;;
62633;SDS011;48704;50.534;6.442;2023-03-08T05:58:12;6.68;;;3.00;;
62633;SDS011;48704;50.534;6.442;2023-03-08T06:00:38;7.68;;;3.90;;
62633;SDS011;48704;50.534;6.442;2023-03-08T06:03:04;7.82;;;3.67;;
62633;SDS011;48704;50.534;6.442;2023-03-08T06:05:33;7.55;;;3.67;;
62633;SDS011;48704;50.534;6.442;2023-03-08T06:07:58;7.07;;;3.83;;
62633;SDS011;48704;50.534;6.442;2023-03-08T06:10:24;6.95;;;3.78;;
62633;SDS011;48704;50.534;6.442;2023-03-08T06:12:50;7.47;;;4.03;;
62633;SDS011;48704;50.534;6.442;2023-03-08T06:15:17;7.40;;;3.65;;
62633;SDS011;48704;50.534;6.442;2023-03-08T06:17:42;7.85;;;4.18;;
62633;SDS011;48704;50.534;6.442;2023-03-08T06:20:08;5.28;;;3.28;;
62633;SDS011;48704;50.534;6.442;2023-03-08T06:22:34;5.95;;;2.90;;
62633;SDS011;48704;50.534;6.442;2023-03-08T06:25:00;7.22;;;3.30;;
62633;SDS011;48704;50.534;6.442;2023-03-08T06:27:32;5.10;;;2.85;;
62633;SDS011;48704;50.534;6.442;2023-03-08T06:30:04;5.65;;;2.47;;
62633;SDS011;48704;50.534;6.442;2023-03-08T06:32:31;4.55;;;2.55;;
62633;SDS011;48704;50.534;6.442;2023-03-08T06:34:56;4.25;;;2.20;;
62633;SDS011;48704;50.534;6.442;2023-03-08T06:37:32;4.80;;;2.17;;
62633;SDS011;48704;50.534;6.442;2023-03-08T06:39:58;4.22;;;2.05;;
62633;SDS011;48704;50.534;6.442;2023-03-08T06:42:25;5.65;;;1.88;;
62633;SDS011;48704;50.534;6.442;2023-03-08T06:44:50;5.60;;;2.20;;
62633;SDS011;48704;50.534;6.442;2023-03-08T06:47:16;4.43;;;2.08;;
62633;SDS011;48704;50.534;6.442;2023-03-08T06:49:45;4.32;;;2.28;;
62633;SDS011;48704;50.534;6.442;2023-03-08T06:52:16;3.85;;;2.00;;
62633;SDS011;48704;50.534;6.442;2023-03-08T06:54:44;6.90;;;2.55;;
62633;SDS011;48704;50.534;6.442;2023-03-08T06:57:09;4.70;;;2.28;;
62633;SDS011;48704;50.534;6.442;2023-03-08T06:59:37;4.30;;;1.95;;
62633;SDS011;48704;50.534;6.442;2023-03-08T07:02:05;3.78;;;2.17;;
62633;SDS011;48704;50.534;6.442;2023-03-08T07:04:31;4.60;;;2.40;;
62633;SDS011;48704;50.534;6.442;2023-03-08T07:06:59;6.28;;;2.58;;
62633;SDS011;48704;50.534;6.442;2023-03-08T07:09:25;3.17;;;1.60;;
62633;SDS011;48704;50.534;6.442;2023-03-08T07:11:57;4.30;;;2.42;;
62633;SDS011;48704;50.534;6.442;2023-03-08T07:14:25;3.78;;;1.77;;
62633;SDS011;48704;50.534;6.442;2023-03-08T07:17:09;4.72;;;2.35;;
62633;SDS011;48704;50.534;6.442;2023-03-08T07:20:15;3.63;;;2.50;;
62633;SDS011;48704;50.534;6.442;2023-03-08T07:23:05;6.10;;;2.95;;
62633;SDS011;48704;50.534;6.442;2023-03-08T07:25:40;4.95;;;2.60;;
62633;SDS011;48704;50.534;6.442;2023-03-08T07:31:09;7.68;;;3.20;;
62633;SDS011;48704;50.534;6.442;2023-03-08T07:34:05;4.05;;;1.98;;
62633;SDS011;48704;50.534;6.442;2023-03-08T07:36:31;5.93;;;2.42;;
62633;SDS011;48704;50.534;6.442;2023-03-08T07:38:59;7.57;;;3.05;;
62633;SDS011;48704;50.534;6.442;2023-03-08T07:41:31;5.43;;;2.55;;
62633;SDS011;48704;50.534;6.442;2023-03-08T07:43:58;7.68;;;3.38;;
62633;SDS011;48704;50.534;6.442;2023-03-08T07:46:26;7.85;;;2.88;;
62633;SDS011;48704;50.534;6.442;2023-03-08T07:48:52;5.53;;;2.85;;
62633;SDS011;48704;50.534;6.442;2023-03-08T07:51:19;6.60;;;3.45;;
62633;SDS011;48704;50.534;6.442;2023-03-08T07:53:44;7.53;;;3.42;;
62633;SDS011;48704;50.534;6.442;2023-03-08T07:56:10;5.75;;;3.50;;
62633;SDS011;48704;50.534;6.442;2023-03-08T07:58:36;6.18;;;3.10;;
62633;SDS011;48704;50.534;6.442;2023-03-08T08:01:06;5.63;;;2.50;;
62633;SDS011;48704;50.534;6.442;2023-03-08T08:03:40;5.50;;;2.80;;
62633;SDS011;48704;50.534;6.442;2023-03-08T08:06:06;5.35;;;2.75;;
62633;SDS011;48704;50.534;6.442;2023-03-08T08:08:32;5.13;;;2.58;;
62633;SDS011;48704;50.534;6.442;2023-03-08T08:10:57;5.63;;;2.50;;
62633;SDS011;48704;50.534;6.442;2023-03-08T08:13:23;7.40;;;3.38;;
62633;SDS011;48704;50.534;6.442;2023-03-08T08:15:58;4.20;;;2.20;;
62633;SDS011;48704;50.534;6.442;2023-03-08T08:18:24;5.25;;;2.33;;
62633;SDS011;48704;50.534;6.442;2023-03-08T08:20:57;4.80;;;2.47;;
62633;SDS011;48704;50.534;6.442;2023-03-08T08:23:23;5.38;;;2.38;;
62633;SDS011;48704;50.534;6.442;2023-03-08T08:25:49;5.45;;;2.42;;
62633;SDS011;48704;50.534;6.442;2023-03-08T08:28:14;4.00;;;1.73;;
62633;SDS011;48704;50.534;6.442;2023-03-08T08:30:39;4.53;;;2.47;;
62633;SDS011;48704;50.534;6.442;2023-03-08T08:33:04;3.50;;;2.03;;
62633;SDS011;48704;50.534;6.442;2023-03-08T08:35:30;3.35;;;2.10;;
62633;SDS011;48704;50.534;6.442;2023-03-08T08:37:56;4.45;;;2.55;;
62633;SDS011;48704;50.534;6.442;2023-03-08T08:40:21;3.78;;;1.90;;
62633;SDS011;48704;50.534;6.442;2023-03-08T08:42:47;5.43;;;2.40;;
62633;SDS011;48704;50.534;6.442;2023-03-08T08:45:12;4.28;;;2.00;;
62633;SDS011;48704;50.534;6.442;2023-03-08T08:47:37;3.85;;;1.75;;
62633;SDS011;48704;50.534;6.442;2023-03-08T08:50:03;3.60;;;1.90;;
62633;SDS011;48704;50.534;6.442;2023-03-08T08:52:28;5.50;;;1.90;;
62633;SDS011;48704;50.534;6.442;2023-03-08T09:01:02;3.38;;;1.60;;
62633;SDS011;48704;50.534;6.442;2023-03-08T09:03:33;3.72;;;1.80;;
62633;SDS011;48704;50.534;6.442;2023-03-08T09:06:41;3.95;;;1.90;;
62633;SDS011;48704;50.534;6.442;2023-03-08T09:09:42;3.70;;;2.17;;
62633;SDS011;48704;50.534;6.442;2023-03-08T09:12:31;2.40;;;1.48;;
62633;SDS011;48704;50.534;6.442;2023-03-08T09:14:57;4.07;;;1.85;;
62633;SDS011;48704;50.534;6.442;2023-03-08T09:30:08;3.35;;;1.75;;
62633;SDS011;48704;50.534;6.442;2023-03-08T09:32:36;3.58;;;1.85;;
62633;SDS011;48704;50.534;6.442;2023-03-08T09:35:02;4.25;;;1.83;;
62633;SDS011;48704;50.534;6.442;2023-03-08T09:37:29;3.58;;;1.85;;
62633;SDS011;48704;50.534;6.442;2023-03-08T09:39:54;3.50;;;1.50;;
62633;SDS011;48704;50.534;6.442;2023-03-08T09:42:20;3.22;;;1.63;;
62633;SDS011;48704;50.534;6.442;2023-03-08T09:47:57;3.42;;;1.83;;
62633;SDS011;48704;50.534;6.442;2023-03-08T09:50:37;4.97;;;1.83;;
62633;SDS011;48704;50.534;6.442;2023-03-08T09:53:09;3.22;;;1.58;;
62633;SDS011;48704;50.534;6.442;2023-03-08T09:55:50;3.35;;;1.50;;
62633;SDS011;48704;50.534;6.442;2023-03-08T10:00:58;2.97;;;1.60;;
62633;SDS011;48704;50.534;6.442;2023-03-08T10:03:39;3.50;;;1.75;;
62633;SDS011;48704;50.534;6.442;2023-03-08T10:06:31;2.45;;;1.38;;
62633;SDS011;48704;50.534;6.442;2023-03-08T10:14:19;3.50;;;1.80;;
62633;SDS011;48704;50.534;6.442;2023-03-08T10:16:51;3.95;;;2.13;;
62633;SDS011;48704;50.534;6.442;2023-03-08T10:19:38;3.03;;;1.50;;
62633;SDS011;48704;50.534;6.442;2023-03-08T10:22:08;2.72;;;1.48;;
62633;SDS011;48704;50.534;6.442;2023-03-08T10:24:44;3.38;;;1.70;;
62633;SDS011;48704;50.534;6.442;2023-03-08T10:27:23;2.20;;;1.20;;
62633;SDS011;48704;50.534;6.442;2023-03-08T10:29:52;2.78;;;1.50;;
62633;SDS011;48704;50.534;6.442;2023-03-08T10:32:19;2.75;;;1.20;;
62633;SDS011;48704;50.534;6.442;2023-03-08T10:34:46;4.15;;;1.42;;
62633;SDS011;48704;50.534;6.442;2023-03-08T10:37:11;2.17;;;1.10;;
62633;SDS011;48704;50.534;6.442;2023-03-08T10:39:45;1.35;;;0.88;;
62633;SDS011;48704;50.534;6.442;2023-03-08T10:42:16;2.58;;;1.20;;
62633;SDS011;48704;50.534;6.442;2023-03-08T10:44:51;2.10;;;1.10;;
62633;SDS011;48704;50.534;6.442;2023-03-08T10:50:04;2.42;;;1.13;;
62633;SDS011;48704;50.534;6.442;2023-03-08T10:52:32;2.55;;;0.90;;
62633;SDS011;48704;50.534;6.442;2023-03-08T10:55:11;1.80;;;0.80;;
62633;SDS011;48704;50.534;6.442;2023-03-08T10:57:40;1.50;;;0.75;;
62633;SDS011;48704;50.534;6.442;2023-03-08T11:02:44;1.73;;;1.00;;
62633;SDS011;48704;50.534;6.442;2023-03-08T11:05:23;1.50;;;1.00;;
62633;SDS011;48704;50.534;6.442;2023-03-08T11:07:54;1.73;;;0.73;;
62633;SDS011;48704;50.534;6.442;2023-03-08T11:10:22;1.20;;;0.70;;
62633;SDS011;48704;50.534;6.442;2023-03-08T11:13:05;1.25;;;0.70;;
62633;SDS011;48704;50.534;6.442;2023-03-08T11:15:41;0.80;;;0.57;;
62633;SDS011;48704;50.534;6.442;2023-03-08T11:18:24;1.92;;;1.00;;
62633;SDS011;48704;50.534;6.442;2023-03-08T11:21:12;2.03;;;0.85;;
62633;SDS011;48704;50.534;6.442;2023-03-08T11:23:48;1.73;;;0.70;;
62633;SDS011;48704;50.534;6.442;2023-03-08T11:26:28;1.30;;;0.77;;
62633;SDS011;48704;50.534;6.442;2023-03-08T11:34:44;0.65;;;0.52;;
62633;SDS011;48704;50.534;6.442;2023-03-08T11:37:25;1.45;;;0.70;;
62633;SDS011;48704;50.534;6.442;2023-03-08T11:40:02;1.13;;;0.55;;
62633;SDS011;48704;50.534;6.442;2023-03-08T11:45:33;0.45;;;0.40;;
62633;SDS011;48704;50.534;6.442;2023-03-08T11:48:23;0.50;;;0.50;;
62633;SDS011;48704;50.534;6.442;2023-03-08T11:51:05;0.95;;;0.40;;
62633;SDS011;48704;50.534;6.442;2023-03-08T11:53:44;0.47;;;0.28;;
62633;SDS011;48704;50.534;6.442;2023-03-08T11:59:06;0.28;;;0.28;;
62633;SDS011;48704;50.534;6.442;2023-03-08T12:01:51;0.30;;;0.30;;
62633;SDS011;48704;50.534;6.442;2023-03-08T12:04:25;0.82;;;0.30;;
62633;SDS011;48704;50.534;6.442;2023-03-08T12:06:54;1.65;;;0.40;;
62633;SDS011;48704;50.534;6.442;2023-03-08T12:12:09;0.50;;;0.40;;
62633;SDS011;48704;50.534;6.442;2023-03-08T12:14:45;0.77;;;0.40;;
62633;SDS011;48704;50.534;6.442;2023-03-08T12:17:21;1.02;;;0.50;;
62633;SDS011;48704;50.534;6.442;2023-03-08T12:19:51;1.95;;;0.57;;
62633;SDS011;48704;50.534;6.442;2023-03-08T12:27:46;0.75;;;0.50;;
62633;SDS011;48704;50.534;6.442;2023-03-08T12:32:47;1.27;;;0.57;;
62633;SDS011;48704;50.534;6.442;2023-03-08T12:35:31;1.00;;;0.50;;
62633;SDS011;48704;50.534;6.442;2023-03-08T12:40:58;1.17;;;0.68;;
62633;SDS011;48704;50.534;6.442;2023-03-08T12:48:25;0.80;;;0.60;;
62633;SDS011;48704;50.534;6.442;2023-03-08T12:53:21;0.60;;;0.40;;
62633;SDS011;48704;50.534;6.442;2023-03-08T12:58:34;2.20;;;0.80;;
62633;SDS011;48704;50.534;6.442;2023-03-08T13:01:03;1.48;;;0.70;;
62633;SDS011;48704;50.534;6.442;2023-03-08T13:03:38;1.70;;;0.70;;
62633;SDS011;48704;50.534;6.442;2023-03-08T13:06:28;2.75;;;0.95;;
62633;SDS011;48704;50.534;6.442;2023-03-08T13:09:17;1.63;;;0.82;;
62633;SDS011;48704;50.534;6.442;2023-03-08T13:11:46;1.60;;;0.90;;
62633;SDS011;48704;50.534;6.442;2023-03-08T13:16:59;1.55;;;0.80;;
62633;SDS011;48704;50.534;6.442;2023-03-08T13:19:29;1.63;;;0.80;;
62633;SDS011;48704;50.534;6.442;2023-03-08T13:24:37;2.67;;;0.80;;
62633;SDS011;48704;50.534;6.442;2023-03-08T13:27:23;1.50;;;0.82;;
62633;SDS011;48704;50.534;6.442;2023-03-08T13:30:11;1.20;;;0.68;;
62633;SDS011;48704;50.534;6.442;2023-03-08T13:32:45;1.17;;;0.60;;
62633;SDS011;48704;50.534;6.442;2023-03-08T13:35:15;1.50;;;0.90;;
62633;SDS011;48704;50.534;6.442;2023-03-08T13:37:55;1.10;;;0.60;;
62633;SDS011;48704;50.534;6.442;2023-03-08T13:40:33;0.95;;;0.60;;
62633;SDS011;48704;50.534;6.442;2023-03-08T13:43:27;2.20;;;0.82;;
62633;SDS011;48704;50.534;6.442;2023-03-08T13:46:02;1.33;;;0.80;;
62633;SDS011;48704;50.534;6.442;2023-03-08T13:48:43;1.10;;;0.60;;
62633;SDS011;48704;50.534;6.442;2023-03-08T13:51:23;2.17;;;0.80;;
62633;SDS011;48704;50.534;6.442;2023-03-08T13:53:53;1.92;;;0.75;;
62633;SDS011;48704;50.534;6.442;2023-03-08T13:56:26;1.35;;;0.68;;
62633;SDS011;48704;50.534;6.442;2023-03-08T13:58:53;1.92;;;0.77;;
62633;SDS011;48704;50.534;6.442;2023-03-08T14:01:22;1.75;;;0.75;;
62633;SDS011;48704;50.534;6.442;2023-03-08T14:03:51;3.58;;;0.88;;
62633;SDS011;48704;50.534;6.442;2023-03-08T14:06:31;2.70;;;0.98;;
62633;SDS011;48704;50.534;6.442;2023-03-08T14:09:04;1.87;;;0.90;;
62633;SDS011;48704;50.534;6.442;2023-03-08T14:11:32;1.45;;;0.70;;
62633;SDS011;48704;50.534;6.442;2023-03-08T14:14:05;2.30;;;0.80;;
62633;SDS011;48704;50.534;6.442;2023-03-08T14:16:39;2.95;;;0.90;;
62633;SDS011;48704;50.534;6.442;2023-03-08T14:19:10;2.55;;;0.90;;
62633;SDS011;48704;50.534;6.442;2023-03-08T14:24:39;3.30;;;0.80;;
62633;SDS011;48704;50.534;6.442;2023-03-08T14:29:40;1.50;;;0.80;;
62633;SDS011;48704;50.534;6.442;2023-03-08T14:34:46;1.27;;;0.50;;
62633;SDS011;48704;50.534;6.442;2023-03-08T14:37:23;0.82;;;0.38;;
62633;SDS011;48704;50.534;6.442;2023-03-08T14:39:54;0.80;;;0.50;;
62633;SDS011;48704;50.534;6.442;2023-03-08T14:42:49;1.42;;;0.57;;
62633;SDS011;48704;50.534;6.442;2023-03-08T14:46:01;1.48;;;0.60;;
62633;SDS011;48704;50.534;6.442;2023-03-08T14:48:33;0.45;;;0.30;;
62633;SDS011;48704;50.534;6.442;2023-03-08T14:51:02;1.30;;;0.57;;
62633;SDS011;48704;50.534;6.442;2023-03-08T14:56:30;1.40;;;0.60;;
62633;SDS011;48704;50.534;6.442;2023-03-08T14:59:00;3.00;;;0.90;;
62633;SDS011;48704;50.534;6.442;2023-03-08T15:01:35;1.38;;;0.57;;
62633;SDS011;48704;50.534;6.442;2023-03-08T15:04:29;1.17;;;0.60;;
62633;SDS011;48704;50.534;6.442;2023-03-08T15:06:56;1.30;;;0.57;;
62633;SDS011;48704;50.534;6.442;2023-03-08T15:09:49;0.95;;;0.50;;
62633;SDS011;48704;50.534;6.442;2023-03-08T15:15:13;2.17;;;0.88;;
62633;SDS011;48704;50.534;6.442;2023-03-08T15:18:02;3.42;;;0.70;;
62633;SDS011;48704;50.534;6.442;2023-03-08T15:20:41;4.57;;;0.82;;
62633;SDS011;48704;50.534;6.442;2023-03-08T15:23:16;2.60;;;0.80;;
62633;SDS011;48704;50.534;6.442;2023-03-08T15:26:21;3.60;;;0.77;;
62633;SDS011;48704;50.534;6.442;2023-03-08T15:29:01;2.30;;;0.80;;
62633;SDS011;48704;50.534;6.442;2023-03-08T15:31:44;0.90;;;0.40;;
62633;SDS011;48704;50.534;6.442;2023-03-08T15:34:22;2.22;;;0.60;;
62633;SDS011;48704;50.534;6.442;2023-03-08T15:36:50;2.03;;;0.88;;
62633;SDS011;48704;50.534;6.442;2023-03-08T15:39:25;1.17;;;0.60;;
62633;SDS011;48704;50.534;6.442;2023-03-08T15:41:55;2.25;;;0.65;;
62633;SDS011;48704;50.534;6.442;2023-03-08T15:44:21;0.75;;;0.40;;
62633;SDS011;48704;50.534;6.442;2023-03-08T15:47:09;0.95;;;0.50;;
62633;SDS011;48704;50.534;6.442;2023-03-08T15:49:48;0.73;;;0.40;;
62633;SDS011;48704;50.534;6.442;2023-03-08T15:52:19;0.10;;;0.10;;
62633;SDS011;48704;50.534;6.442;2023-03-08T15:54:55;0.22;;;0.10;;
62633;SDS011;48704;50.534;6.442;2023-03-08T15:57:30;3.60;;;0.80;;
62633;SDS011;48704;50.534;6.442;2023-03-08T15:59:55;1.55;;;0.40;;
62633;SDS011;48704;50.534;6.442;2023-03-08T16:02:22;1.90;;;0.50;;
62633;SDS011;48704;50.534;6.442;2023-03-08T16:04:49;0.60;;;0.40;;
62633;SDS011;48704;50.534;6.442;2023-03-08T16:07:19;0.35;;;0.30;;
62633;SDS011;48704;50.534;6.442;2023-03-08T16:10:04;0.73;;;0.43;;
62633;SDS011;48704;50.534;6.442;2023-03-08T16:13:13;0.82;;;0.40;;
62633;SDS011;48704;50.534;6.442;2023-03-08T16:15:43;0.82;;;0.38;;
62633;SDS011;48704;50.534;6.442;2023-03-08T16:18:16;2.67;;;0.43;;
62633;SDS011;48704;50.534;6.442;2023-03-08T16:30:53;3.10;;;1.15;;
62633;SDS011;48704;50.534;6.442;2023-03-08T16:33:56;1.23;;;0.70;;
62633;SDS011;48704;50.534;6.442;2023-03-08T16:47:25;1.50;;;0.60;;
62633;SDS011;48704;50.534;6.442;2023-03-08T17:08:10;2.25;;;0.77;;
62633;SDS011;48704;50.534;6.442;2023-03-08T17:11:47;2.08;;;1.00;;
62633;SDS011;48704;50.534;6.442;2023-03-08T17:15:15;2.50;;;1.15;;
62633;SDS011;48704;50.534;6.442;2023-03-08T17:18:50;1.90;;;1.10;;
62633;SDS011;48704;50.534;6.442;2023-03-08T17:32:27;2.00;;;1.00;;
62633;SDS011;48704;50.534;6.442;2023-03-08T17:35:46;2.15;;;1.10;;
62633;SDS011;48704;50.534;6.442;2023-03-08T17:38:39;1.85;;;1.00;;
62633;SDS011;48704;50.534;6.442;2023-03-08T17:44:07;1.63;;;1.00;;